TAF KPUB
KPUB 090520Z 0906/1006 31015G30KT P6SM SCT120 BKN200 FM091000 29012KT P6SM SCT120 BKN200 FM091200 30008KT P6SM BKN200 FM092000 24015G25KT P6SM SCT120 BKN250 FM100300 36008KT P6SM SCT120 BKN250=
METAR KPUB
WC KPUB
WS KPUB
WV KPUB